Time,TemperatureF,DewpointF,PressureIn,WindDirection,WindDirectionDegrees,WindSpeedMPH,WindSpeedGustMPH,Humidity,HourlyPrecipIn,Conditions,Clouds,dailyrainin,SoftwareType,DateUTC
2013-03-27 00:00:00,31.1,23.8,29.79,NW,313,0.0,0.0,74,0.00,,,0.00,WeatherCatV1.14B232,2013-03-27 04:00:00,
2013-03-27 00:05:00,31.1,23.8,29.79,NW,313,0.0,0.0,74,0.00,,,0.00,WeatherCatV1.14B232,2013-03-27 04:05:00,
2013-03-27 00:06:00,31.1,23.8,29.79,NW,313,0.0,0.0,74,0.00,,,0.00,WeatherCatV1.14B232,2013-03-27 04:06:00,
2013-03-27 00:10:00,30.9,23.9,29.79,NW,313,0.0,0.0,75,0.00,,,0.00,WeatherCatV1.14B232,2013-03-27 04:10:00,
2013-03-27 00:12:00,30.9,23.6,29.79,NW,313,0.0,0.0,74,0.00,,,0.00,WeatherCatV1.14B232,2013-03-27 04:12:00,
2013-03-27 00:17:00,30.9,23.9,29.80,NW,313,0.0,0.0,75,0.00,,,0.00,WeatherCatV1.14B232,2013-03-27 04:17:00,
2013-03-27 00:21:00,30.9,23.6,29.79,NW,313,0.0,0.0,74,0.00,,,0.00,WeatherCatV1.14B232,2013-03-27 04:21:00,
2013-03-27 00:26:00,30.9,23.6,29.79,NW,313,0.0,0.0,74,0.00,,,0.00,WeatherCatV1.14B232,2013-03-27 04:26:00,
2013-03-27 00:32:00,30.9,23.9,29.79,NW,313,0.0,0.0,75,0.00,,,0.00,WeatherCatV1.14B232,2013-03-27 04:32:00,
2013-03-27 00:37:00,30.9,23.9,29.78,NW,313,0.0,0.0,75,0.00,,,0.00,WeatherCatV1.14B232,2013-03-27 04:37:00,
2013-03-27 00:42:00,30.8,23.5,29.79,NW,313,0.0,0.0,74,0.00,,,0.00,WeatherCatV1.14B232,2013-03-27 04:42:00,
2013-03-27 00:46:00,30.6,23.6,29.80,NW,313,0.0,0.0,75,0.00,,,0.00,WeatherCatV1.14B232,2013-03-27 04:46:00,
2013-03-27 00:51:00,30.5,23.9,29.79,NW,313,0.0,0.0,76,0.00,,,0.00,WeatherCatV1.14B232,2013-03-27 04:51:00,
2013-03-27 00:56:00,30.3,23.7,29.79,NW,313,0.0,0.0,76,0.00,,,0.00,WeatherCatV1.14B232,2013-03-27 04:56:00,
2013-03-27 01:01:00,30.0,23.7,29.79,NW,313,0.0,0.0,77,0.00,,,0.00,WeatherCatV1.14B232,2013-03-27 05:01:00,
2013-03-27 01:06:00,29.9,23.6,29.79,NW,313,0.0,0.0,77,0.00,,,0.00,WeatherCatV1.14B232,2013-03-27 05:06:00,
2013-03-27 01:11:00,29.8,23.8,29.79,NW,313,0.0,0.0,78,0.00,,,0.00,WeatherCatV1.14B232,2013-03-27 05:11:00,
2013-03-27 01:16:00,29.6,23.6,29.79,NW,313,0.0,0.0,78,0.00,,,0.00,WeatherCatV1.14B232,2013-03-27 05:16:00,
2013-03-27 01:21:00,29.4,23.7,29.79,NW,313,0.0,0.0,79,0.00,,,0.00,WeatherCatV1.14B232,2013-03-27 05:21:00,
2013-03-27 01:26:00,29.3,23.9,29.79,NW,313,0.0,0.0,80,0.00,,,0.00,WeatherCatV1.14B232,2013-03-27 05:26:00,
2013-03-27 01:31:00,29.1,23.7,29.79,NW,313,0.0,0.0,80,0.00,,,0.00,WeatherCatV1.14B232,2013-03-27 05:31:00,
2013-03-27 01:36:00,29.0,24.2,29.79,NW,313,0.0,0.0,82,0.00,,,0.00,WeatherCatV1.14B232,2013-03-27 05:36:00,
2013-03-27 01:41:00,28.7,23.9,29.78,NW,313,0.0,0.0,82,0.00,,,0.00,WeatherCatV1.14B232,2013-03-27 05:41:00,
2013-03-27 01:46:00,28.4,23.6,29.79,NW,313,0.0,0.0,82,0.00,,,0.00,WeatherCatV1.14B232,2013-03-27 05:46:00,
2013-03-27 01:51:00,28.3,23.8,29.79,NW,313,0.0,0.0,83,0.00,,,0.00,WeatherCatV1.14B232,2013-03-27 05:51:00,
2013-03-27 01:53:00,28.2,23.7,29.79,NW,313,0.0,0.0,83,0.00,,,0.00,WeatherCatV1.14B232,2013-03-27 05:53:00,
2013-03-27 01:56:00,28.1,23.9,29.79,NW,313,0.0,0.0,84,0.00,,,0.00,WeatherCatV1.14B232,2013-03-27 05:56:00,
2013-03-27 02:02:00,28.3,24.1,29.79,NW,313,0.0,0.0,84,0.00,,,0.00,WeatherCatV1.14B232,2013-03-27 06:02:00,
2013-03-27 02:06:00,28.3,24.4,29.79,NW,313,0.0,0.0,85,0.00,,,0.00,WeatherCatV1.14B232,2013-03-27 06:06:00,
2013-03-27 02:11:00,28.2,24.3,29.79,NW,313,0.0,0.0,85,0.00,,,0.00,WeatherCatV1.14B232,2013-03-27 06:11:00,
2013-03-27 02:16:00,28.2,24.3,29.79,NW,313,0.0,0.0,85,0.00,,,0.00,WeatherCatV1.14B232,2013-03-27 06:16:00,
2013-03-27 02:17:00,28.2,24.3,29.79,NW,313,0.0,0.0,85,0.00,,,0.00,WeatherCatV1.14B232,2013-03-27 06:17:00,
2013-03-27 02:21:00,28.1,23.9,29.79,NW,313,0.0,0.0,84,0.00,,,0.00,WeatherCatV1.14B232,2013-03-27 06:21:00,
2013-03-27 02:26:00,28.0,24.1,29.79,NW,313,0.0,0.0,85,0.00,,,0.00,WeatherCatV1.14B232,2013-03-27 06:26:00,
2013-03-27 02:31:00,27.8,23.9,29.79,NW,313,0.0,0.0,85,0.00,,,0.00,WeatherCatV1.14B232,2013-03-27 06:31:00,
2013-03-27 02:36:00,27.5,23.6,29.78,NW,313,0.0,0.0,85,0.00,,,0.00,WeatherCatV1.14B232,2013-03-27 06:36:00,
2013-03-27 02:41:00,27.4,23.5,29.79,NW,313,0.0,0.0,85,0.00,,,0.00,WeatherCatV1.14B232,2013-03-27 06:41:00,
2013-03-27 02:46:00,27.2,23.3,29.78,NW,313,0.0,0.0,85,0.00,,,0.00,WeatherCatV1.14B232,2013-03-27 06:46:00,
2013-03-27 02:51:00,27.1,23.2,29.78,NW,313,0.0,0.0,85,0.00,,,0.00,WeatherCatV1.14B232,2013-03-27 06:51:00,
2013-03-27 02:52:00,27.1,23.2,29.79,NW,313,0.0,0.0,85,0.00,,,0.00,WeatherCatV1.14B232,2013-03-27 06:52:00,
2013-03-27 02:56:00,26.9,23.0,29.78,NW,313,0.0,0.0,85,0.00,,,0.00,WeatherCatV1.14B232,2013-03-27 06:56:00,
2013-03-27 03:01:00,26.9,23.0,29.78,NW,313,0.0,0.0,85,0.00,,,0.00,WeatherCatV1.14B232,2013-03-27 07:01:00,
2013-03-27 03:06:00,26.9,23.3,29.78,NW,313,0.0,0.0,86,0.00,,,0.00,WeatherCatV1.14B232,2013-03-27 07:06:00,
2013-03-27 03:07:00,26.9,23.3,29.78,NW,313,0.0,0.0,86,0.00,,,0.00,WeatherCatV1.14B232,2013-03-27 07:07:00,
2013-03-27 03:12:00,26.8,22.9,29.78,NW,313,0.0,0.0,85,0.00,,,0.00,WeatherCatV1.14B232,2013-03-27 07:12:00,
2013-03-27 03:17:00,26.6,22.7,29.78,NW,313,0.0,0.0,85,0.00,,,0.00,WeatherCatV1.14B232,2013-03-27 07:17:00,
2013-03-27 03:22:00,26.6,23.0,29.75,NW,313,0.0,0.0,86,0.00,,,0.00,WeatherCatV1.14B232,2013-03-27 07:22:00,
2013-03-27 03:26:00,26.7,23.1,29.78,NW,313,0.0,0.0,86,0.00,,,0.00,WeatherCatV1.14B232,2013-03-27 07:26:00,
2013-03-27 03:31:00,26.6,23.0,29.78,NW,313,0.0,0.0,86,0.00,,,0.00,WeatherCatV1.14B232,2013-03-27 07:31:00,
2013-03-27 03:36:00,26.6,23.0,29.78,NW,313,0.0,0.0,86,0.00,,,0.00,WeatherCatV1.14B232,2013-03-27 07:36:00,
2013-03-27 03:41:00,26.6,23.3,29.78,NW,313,0.0,0.0,87,0.00,,,0.00,WeatherCatV1.14B232,2013-03-27 07:41:00,
2013-03-27 03:46:00,26.4,23.1,29.78,NW,313,0.0,0.0,87,0.00,,,0.00,WeatherCatV1.14B232,2013-03-27 07:46:00,
2013-03-27 03:51:00,26.2,22.6,29.78,NW,313,0.0,0.0,86,0.00,,,0.00,WeatherCatV1.14B232,2013-03-27 07:51:00,
2013-03-27 03:56:00,26.0,22.4,29.77,NW,313,0.0,0.0,86,0.00,,,0.00,WeatherCatV1.14B232,2013-03-27 07:56:00,
2013-03-27 04:01:00,25.9,22.3,29.78,NW,313,0.0,0.0,86,0.00,,,0.00,WeatherCatV1.14B232,2013-03-27 08:01:00,
2013-03-27 04:04:00,25.9,22.6,29.78,NW,313,0.0,0.0,87,0.00,,,0.00,WeatherCatV1.14B232,2013-03-27 08:04:00,
2013-03-27 04:06:00,25.9,22.6,29.78,NW,313,0.0,0.0,87,0.00,,,0.00,WeatherCatV1.14B232,2013-03-27 08:06:00,
2013-03-27 04:11:00,25.9,22.8,29.78,NW,313,0.0,0.0,88,0.00,,,0.00,WeatherCatV1.14B232,2013-03-27 08:11:00,
2013-03-27 04:16:00,25.9,22.8,29.78,NW,313,0.0,0.0,88,0.00,,,0.00,WeatherCatV1.14B232,2013-03-27 08:16:00,
2013-03-27 04:17:00,25.9,22.8,29.77,NW,313,0.0,0.0,88,0.00,,,0.00,WeatherCatV1.14B232,2013-03-27 08:17:00,
2013-03-27 04:21:00,25.6,22.3,29.78,NW,313,0.0,0.0,87,0.00,,,0.00,WeatherCatV1.14B232,2013-03-27 08:21:00,
2013-03-27 04:26:00,25.6,22.5,29.78,NW,313,0.0,0.0,88,0.00,,,0.00,WeatherCatV1.14B232,2013-03-27 08:26:00,
2013-03-27 04:31:00,25.4,22.4,29.78,NW,313,0.0,0.0,88,0.00,,,0.00,WeatherCatV1.14B232,2013-03-27 08:31:00,
2013-03-27 04:36:00,25.4,22.6,29.78,NW,313,0.0,0.0,89,0.00,,,0.00,WeatherCatV1.14B232,2013-03-27 08:36:00,
2013-03-27 04:41:00,25.6,22.8,29.78,NW,313,0.0,0.0,89,0.00,,,0.00,WeatherCatV1.14B232,2013-03-27 08:41:00,
2013-03-27 04:46:00,25.6,22.8,29.75,NW,313,0.0,0.0,89,0.00,,,0.00,WeatherCatV1.14B232,2013-03-27 08:46:00,
2013-03-27 04:51:00,25.4,22.6,29.78,NW,313,0.0,0.0,89,0.00,,,0.00,WeatherCatV1.14B232,2013-03-27 08:51:00,
2013-03-27 04:56:00,25.4,22.6,29.78,NW,313,0.0,0.0,89,0.00,,,0.00,WeatherCatV1.14B232,2013-03-27 08:56:00,
2013-03-27 04:57:00,25.4,22.6,29.77,NW,313,0.0,0.0,89,0.00,,,0.00,WeatherCatV1.14B232,2013-03-27 08:57:00,
2013-03-27 05:02:00,25.4,22.6,29.78,NW,313,0.0,0.0,89,0.00,,,0.00,WeatherCatV1.14B232,2013-03-27 09:02:00,
2013-03-27 05:06:00,25.4,22.6,29.78,NW,313,0.0,0.0,89,0.00,,,0.00,WeatherCatV1.14B232,2013-03-27 09:06:00,
2013-03-27 05:07:00,25.3,22.5,29.78,NW,313,0.0,0.0,89,0.00,,,0.00,WeatherCatV1.14B232,2013-03-27 09:07:00,
2013-03-27 05:11:00,25.3,22.5,29.78,NW,313,0.0,0.0,89,0.00,,,0.00,WeatherCatV1.14B232,2013-03-27 09:11:00,
2013-03-27 05:16:00,25.3,22.8,29.78,NW,313,0.0,0.0,90,0.00,,,0.00,WeatherCatV1.14B232,2013-03-27 09:16:00,
2013-03-27 05:21:00,25.1,22.6,29.79,NW,313,0.0,0.0,90,0.00,,,0.00,WeatherCatV1.14B232,2013-03-27 09:21:00,
2013-03-27 05:26:00,25.1,22.6,29.79,NW,313,0.0,0.0,90,0.00,,,0.00,WeatherCatV1.14B232,2013-03-27 09:26:00,
2013-03-27 05:31:00,25.1,22.9,29.79,NW,313,0.0,0.0,91,0.00,,,0.00,WeatherCatV1.14B232,2013-03-27 09:31:00,
2013-03-27 05:36:00,25.0,22.8,29.79,NW,313,0.0,0.0,91,0.00,,,0.00,WeatherCatV1.14B232,2013-03-27 09:36:00,
2013-03-27 05:41:00,25.0,22.8,29.79,NW,313,0.0,0.0,91,0.00,,,0.00,WeatherCatV1.14B232,2013-03-27 09:41:00,
2013-03-27 05:46:00,24.7,22.5,29.79,NW,313,0.0,0.0,91,0.00,,,0.00,WeatherCatV1.14B232,2013-03-27 09:46:00,
2013-03-27 05:51:00,24.7,22.5,29.79,NW,313,0.0,0.0,91,0.00,,,0.00,WeatherCatV1.14B232,2013-03-27 09:51:00,
2013-03-27 05:56:00,24.8,22.8,29.79,NW,313,0.0,0.0,92,0.00,,,0.00,WeatherCatV1.14B232,2013-03-27 09:56:00,
2013-03-27 06:01:00,24.8,22.6,29.79,NW,313,0.0,0.0,91,0.00,,,0.00,WeatherCatV1.14B232,2013-03-27 10:01:00,
2013-03-27 06:06:00,24.8,22.8,29.80,NW,313,0.0,0.0,92,0.00,,,0.00,WeatherCatV1.14B232,2013-03-27 10:06:00,
2013-03-27 06:11:00,24.7,22.7,29.80,NW,313,0.0,0.0,92,0.00,,,0.00,WeatherCatV1.14B232,2013-03-27 10:11:00,
2013-03-27 06:16:00,24.7,22.7,29.79,NW,313,0.0,0.0,92,0.00,,,0.00,WeatherCatV1.14B232,2013-03-27 10:16:00,
2013-03-27 06:21:00,24.5,22.5,29.80,NW,313,0.0,0.0,92,0.00,,,0.00,WeatherCatV1.14B232,2013-03-27 10:21:00,
2013-03-27 06:26:00,24.4,22.4,29.80,NW,313,0.0,0.0,92,0.00,,,0.00,WeatherCatV1.14B232,2013-03-27 10:26:00,
2013-03-27 06:31:00,24.4,22.7,29.79,NW,313,0.0,0.0,93,0.00,,,0.00,WeatherCatV1.14B232,2013-03-27 10:31:00,
2013-03-27 06:36:00,24.4,22.7,29.80,NW,313,0.0,0.0,93,0.00,,,0.00,WeatherCatV1.14B232,2013-03-27 10:36:00,
2013-03-27 06:41:00,24.4,22.7,29.79,NW,313,0.0,0.0,93,0.00,,,0.00,WeatherCatV1.14B232,2013-03-27 10:41:00,
2013-03-27 06:46:00,24.2,22.5,29.80,NW,313,0.0,0.0,93,0.00,,,0.00,WeatherCatV1.14B232,2013-03-27 10:46:00,
2013-03-27 06:51:00,24.2,22.5,29.80,NW,313,0.0,0.0,93,0.00,,,0.00,WeatherCatV1.14B232,2013-03-27 10:51:00,
2013-03-27 06:56:00,24.1,22.4,29.80,NW,313,0.0,0.0,93,0.00,,,0.00,WeatherCatV1.14B232,2013-03-27 10:56:00,
2013-03-27 07:01:00,24.1,22.6,29.80,NW,313,0.0,0.0,94,0.00,,,0.00,WeatherCatV1.14B232,2013-03-27 11:01:00,
2013-03-27 07:06:00,24.4,22.9,29.80,NW,313,0.0,0.0,94,0.00,,,0.00,WeatherCatV1.14B232,2013-03-27 11:06:00,
2013-03-27 07:11:00,25.1,24.1,29.81,NW,313,0.0,0.0,96,0.00,,,0.00,WeatherCatV1.14B232,2013-03-27 11:11:00,
2013-03-27 07:16:00,25.7,24.5,29.80,NW,313,0.0,0.0,95,0.00,,,0.00,WeatherCatV1.14B232,2013-03-27 11:16:00,
2013-03-27 07:21:00,26.0,24.5,29.80,NW,313,0.0,0.0,94,0.00,,,0.00,WeatherCatV1.14B232,2013-03-27 11:21:00,
2013-03-27 07:26:00,26.2,24.5,29.80,NW,313,1.0,1.0,93,0.00,,,0.00,WeatherCatV1.14B232,2013-03-27 11:26:00,
2013-03-27 07:31:00,26.4,24.7,29.80,NW,313,0.0,0.0,93,0.00,,,0.00,WeatherCatV1.14B232,2013-03-27 11:31:00,
2013-03-27 07:36:00,26.5,25.0,29.81,NW,313,0.0,0.0,94,0.00,,,0.00,WeatherCatV1.14B232,2013-03-27 11:36:00,
2013-03-27 07:37:00,26.5,25.0,29.80,NW,313,0.0,0.0,94,0.00,,,0.00,WeatherCatV1.14B232,2013-03-27 11:37:00,
2013-03-27 07:41:00,26.8,25.1,29.82,NW,313,0.0,0.0,93,0.00,,,0.00,WeatherCatV1.14B232,2013-03-27 11:41:00,
2013-03-27 07:46:00,27.1,25.6,29.80,NW,313,0.0,0.0,94,0.00,,,0.00,WeatherCatV1.14B232,2013-03-27 11:46:00,
2013-03-27 07:51:00,27.8,26.3,29.81,NW,313,0.0,1.0,94,0.00,,,0.00,WeatherCatV1.14B232,2013-03-27 11:51:00,
2013-03-27 07:52:00,28.1,26.6,29.81,NW,313,0.0,1.0,94,0.00,,,0.00,WeatherCatV1.14B232,2013-03-27 11:52:00,
2013-03-27 07:56:00,29.0,27.8,29.81,NW,313,0.0,0.0,95,0.00,,,0.00,WeatherCatV1.14B232,2013-03-27 11:56:00,
2013-03-27 07:57:00,29.3,27.8,29.81,NW,313,0.0,0.0,94,0.00,,,0.00,WeatherCatV1.14B232,2013-03-27 11:57:00,
2013-03-27 08:01:00,30.5,28.7,29.81,NW,313,0.0,0.0,93,0.00,,,0.00,WeatherCatV1.14B232,2013-03-27 12:01:00,
2013-03-27 08:02:00,30.8,28.8,29.81,NW,313,0.0,0.0,92,0.00,,,0.00,WeatherCatV1.14B232,2013-03-27 12:02:00,
2013-03-27 08:06:00,31.8,29.2,29.81,NW,313,0.0,0.0,90,0.00,,,0.00,WeatherCatV1.14B232,2013-03-27 12:06:00,
2013-03-27 08:07:00,32.1,29.5,29.82,NW,314,0.0,0.0,90,0.00,,,0.00,WeatherCatV1.14B232,2013-03-27 12:07:00,
2013-03-27 08:11:00,33.3,30.4,29.80,NW,314,0.0,1.0,89,0.00,,,0.00,WeatherCatV1.14B232,2013-03-27 12:11:00,
2013-03-27 08:16:00,34.5,30.8,29.81,NW,314,0.0,0.0,86,0.00,,,0.00,WeatherCatV1.14B232,2013-03-27 12:16:00,
2013-03-27 08:17:00,34.6,30.6,29.81,NW,314,0.0,0.0,85,0.00,,,0.00,WeatherCatV1.14B232,2013-03-27 12:17:00,
2013-03-27 08:21:00,35.8,31.2,29.81,NW,314,0.0,0.0,83,0.00,,,0.00,WeatherCatV1.14B232,2013-03-27 12:21:00,
2013-03-27 08:22:00,36.0,31.3,29.81,NW,314,0.0,0.0,83,0.00,,,0.00,WeatherCatV1.14B232,2013-03-27 12:22:00,
2013-03-27 08:26:00,37.0,31.7,29.81,NW,314,0.0,0.0,81,0.00,,,0.00,WeatherCatV1.14B232,2013-03-27 12:26:00,
2013-03-27 08:31:00,38.3,33.0,29.81,NW,314,0.0,0.0,81,0.00,,,0.00,WeatherCatV1.14B232,2013-03-27 12:31:00,
2013-03-27 08:36:00,39.5,32.9,29.82,NW,314,0.0,0.0,77,0.00,,,0.00,WeatherCatV1.14B232,2013-03-27 12:36:00,
2013-03-27 08:41:00,40.0,32.4,29.81,NW,314,0.0,2.0,74,0.00,,,0.00,WeatherCatV1.14B232,2013-03-27 12:41:00,
2013-03-27 08:46:00,40.2,31.2,29.81,NW,314,0.0,2.0,70,0.00,,,0.00,WeatherCatV1.14B232,2013-03-27 12:46:00,
2013-03-27 08:51:00,40.7,31.7,29.81,NW,314,0.0,0.0,70,0.00,,,0.00,WeatherCatV1.14B232,2013-03-27 12:51:00,
2013-03-27 08:56:00,41.3,30.1,29.81,NW,315,6.0,6.0,64,0.00,,,0.00,WeatherCatV1.14B232,2013-03-27 12:56:00,
2013-03-27 09:01:00,41.7,29.7,29.80,WNW,301,2.0,5.0,62,0.00,,,0.00,WeatherCatV1.14B232,2013-03-27 13:01:00,
2013-03-27 09:06:00,42.2,28.9,29.80,West,281,1.0,4.0,59,0.00,,,0.00,WeatherCatV1.14B232,2013-03-27 13:06:00,
2013-03-27 09:11:00,42.7,29.0,29.81,NNE,12,4.0,4.0,58,0.00,,,0.00,WeatherCatV1.14B232,2013-03-27 13:11:00,
2013-03-27 09:16:00,43.2,28.6,29.81,West,276,0.0,6.0,56,0.00,,,0.00,WeatherCatV1.14B232,2013-03-27 13:16:00,
2013-03-27 09:21:00,43.5,28.4,29.81,WNW,289,1.0,8.0,55,0.00,,,0.00,WeatherCatV1.14B232,2013-03-27 13:21:00,
2013-03-27 09:26:00,43.7,28.2,29.80,West,266,3.0,6.0,54,0.00,,,0.00,WeatherCatV1.14B232,2013-03-27 13:26:00,
2013-03-27 09:31:00,44.2,28.6,29.81,WNW,283,9.0,9.0,54,0.00,,,0.00,WeatherCatV1.14B232,2013-03-27 13:31:00,
2013-03-27 09:32:00,44.3,28.7,29.80,NNW,334,2.0,9.0,54,0.00,,,0.00,WeatherCatV1.14B232,2013-03-27 13:32:00,
2013-03-27 09:37:00,44.6,28.5,29.80,North,359,3.0,4.0,53,0.00,,,0.00,WeatherCatV1.14B232,2013-03-27 13:37:00,
2013-03-27 09:41:00,45.3,28.2,29.80,NW,315,6.0,11.0,51,0.00,,,0.00,WeatherCatV1.14B232,2013-03-27 13:41:00,
2013-03-27 09:42:00,45.3,28.2,29.80,NW,325,12.0,12.0,51,0.00,,,0.00,WeatherCatV1.14B232,2013-03-27 13:42:00,
2013-03-27 09:46:00,45.3,27.8,29.80,NW,318,2.0,7.0,50,0.00,,,0.00,WeatherCatV1.14B232,2013-03-27 13:46:00,
2013-03-27 09:51:00,45.4,28.3,29.80,WNW,293,3.0,8.0,51,0.00,,,0.00,WeatherCatV1.14B232,2013-03-27 13:51:00,
2013-03-27 09:52:00,45.4,28.3,29.80,West,275,3.0,8.0,51,0.00,,,0.00,WeatherCatV1.14B232,2013-03-27 13:52:00,
2013-03-27 09:57:00,45.5,28.0,29.80,NW,321,5.0,8.0,50,0.00,,,0.00,WeatherCatV1.14B232,2013-03-27 13:57:00,
2013-03-27 10:02:00,45.4,27.4,29.80,NNE,29,7.0,12.0,49,0.00,,,0.00,WeatherCatV1.14B232,2013-03-27 14:02:00,
2013-03-27 10:06:00,45.4,27.9,29.79,NNE,29,5.0,6.0,50,0.00,,,0.00,WeatherCatV1.14B232,2013-03-27 14:06:00,
2013-03-27 10:11:00,46.0,28.4,29.79,ESE,105,5.0,5.0,50,0.00,,,0.00,WeatherCatV1.14B232,2013-03-27 14:11:00,
2013-03-27 10:16:00,46.3,28.7,29.79,NNW,336,4.0,8.0,50,0.00,,,0.00,WeatherCatV1.14B232,2013-03-27 14:16:00,
2013-03-27 10:17:00,46.3,28.2,29.79,North,349,1.0,5.0,49,0.00,,,0.00,WeatherCatV1.14B232,2013-03-27 14:17:00,
2013-03-27 10:22:00,46.7,28.6,29.79,NNW,339,4.0,9.0,49,0.00,,,0.00,WeatherCatV1.14B232,2013-03-27 14:22:00,
2013-03-27 10:26:00,47.0,28.8,29.79,NNW,334,5.0,7.0,49,0.00,,,0.00,WeatherCatV1.14B232,2013-03-27 14:26:00,
2013-03-27 10:27:00,47.0,28.8,29.78,NNW,337,2.0,7.0,49,0.00,,,0.00,WeatherCatV1.14B232,2013-03-27 14:27:00,
2013-03-27 10:31:00,47.1,28.9,29.79,NNW,332,4.0,10.0,49,0.00,,,0.00,WeatherCatV1.14B232,2013-03-27 14:31:00,
2013-03-27 10:36:00,47.4,28.7,29.79,NNW,340,2.0,7.0,48,0.00,,,0.00,WeatherCatV1.14B232,2013-03-27 14:36:00,
2013-03-27 10:41:00,47.8,29.6,29.78,North,349,1.0,4.0,49,0.00,,,0.00,WeatherCatV1.14B232,2013-03-27 14:41:00,
2013-03-27 10:46:00,48.2,30.4,29.79,NNW,330,7.0,9.0,50,0.00,,,0.00,WeatherCatV1.14B232,2013-03-27 14:46:00,
2013-03-27 10:51:00,48.3,30.0,29.79,NW,325,6.0,16.0,49,0.00,,,0.00,WeatherCatV1.14B232,2013-03-27 14:51:00,
2013-03-27 10:56:00,48.2,29.4,29.78,North,359,6.0,10.0,48,0.00,,,0.00,WeatherCatV1.14B232,2013-03-27 14:56:00,
2013-03-27 11:01:00,47.9,29.7,29.79,NW,310,0.0,5.0,49,0.00,,,0.00,WeatherCatV1.14B232,2013-03-27 15:01:00,
2013-03-27 11:02:00,47.8,29.6,29.78,NW,310,1.0,5.0,49,0.00,,,0.00,WeatherCatV1.14B232,2013-03-27 15:02:00,
2013-03-27 11:06:00,48.2,30.4,29.78,NNW,339,1.0,6.0,50,0.00,,,0.00,WeatherCatV1.14B232,2013-03-27 15:06:00,
2013-03-27 11:11:00,48.3,30.0,29.79,WNW,288,1.0,6.0,49,0.00,,,0.00,WeatherCatV1.14B232,2013-03-27 15:11:00,
2013-03-27 11:16:00,48.2,29.4,29.78,SE,143,3.0,6.0,48,0.00,,,0.00,WeatherCatV1.14B232,2013-03-27 15:16:00,
2013-03-27 11:21:00,48.5,29.7,29.78,North,0,2.0,6.0,48,0.00,,,0.00,WeatherCatV1.14B232,2013-03-27 15:21:00,
2013-03-27 11:26:00,48.6,29.8,29.78,North,4,3.0,8.0,48,0.00,,,0.00,WeatherCatV1.14B232,2013-03-27 15:26:00,
2013-03-27 11:31:00,48.8,30.5,29.78,North,357,6.0,9.0,49,0.00,,,0.00,WeatherCatV1.14B232,2013-03-27 15:31:00,
2013-03-27 11:36:00,48.9,30.1,29.77,East,98,6.0,9.0,48,0.00,,,0.00,WeatherCatV1.14B232,2013-03-27 15:36:00,
2013-03-27 11:41:00,48.8,29.5,29.77,NE,54,3.0,15.0,47,0.00,,,0.00,WeatherCatV1.14B232,2013-03-27 15:41:00,
2013-03-27 11:46:00,49.6,30.7,29.77,ENE,62,9.0,11.0,48,0.00,,,0.00,WeatherCatV1.14B232,2013-03-27 15:46:00,
2013-03-27 11:51:00,49.9,28.3,29.76,SSE,163,3.0,9.0,43,0.00,,,0.00,WeatherCatV1.14B232,2013-03-27 15:51:00,
2013-03-27 11:57:00,50.2,28.6,29.77,NW,316,0.0,11.0,43,0.00,,,0.00,WeatherCatV1.14B232,2013-03-27 15:57:00,
2013-03-27 12:01:00,50.4,28.2,29.76,NNW,332,1.0,12.0,42,0.00,,,0.00,WeatherCatV1.14B232,2013-03-27 16:01:00,
2013-03-27 12:06:00,50.8,28.5,29.76,SSW,213,5.0,5.0,42,0.00,,,0.00,WeatherCatV1.14B232,2013-03-27 16:06:00,
2013-03-27 12:07:00,50.8,29.1,29.76,East,95,3.0,5.0,43,0.00,,,0.00,WeatherCatV1.14B232,2013-03-27 16:07:00,
2013-03-27 12:12:00,50.7,27.9,29.77,NNW,348,6.0,11.0,41,0.00,,,0.00,WeatherCatV1.14B232,2013-03-27 16:12:00,
2013-03-27 12:17:00,50.5,27.7,29.76,NW,306,2.0,10.0,41,0.00,,,0.00,WeatherCatV1.14B232,2013-03-27 16:17:00,
2013-03-27 12:22:00,50.9,29.2,29.77,West,280,5.0,10.0,43,0.00,,,0.00,WeatherCatV1.14B232,2013-03-27 16:22:00,
2013-03-27 12:27:00,50.9,28.0,29.75,East,79,0.0,6.0,41,0.00,,,0.00,WeatherCatV1.14B232,2013-03-27 16:27:00,
2013-03-27 12:31:00,51.2,27.7,29.76,NNW,339,6.0,12.0,40,0.00,,,0.00,WeatherCatV1.14B232,2013-03-27 16:31:00,
2013-03-27 12:32:00,51.1,27.6,29.76,NNW,336,3.0,12.0,40,0.00,,,0.00,WeatherCatV1.14B232,2013-03-27 16:32:00,
2013-03-27 12:36:00,51.1,28.2,29.76,WNW,295,4.0,4.0,41,0.00,,,0.00,WeatherCatV1.14B232,2013-03-27 16:36:00,
2013-03-27 12:42:00,51.5,28.0,29.76,NW,311,4.0,13.0,40,0.00,,,0.00,WeatherCatV1.14B232,2013-03-27 16:42:00,
2013-03-27 12:47:00,51.5,27.4,29.75,NE,44,6.0,15.0,39,0.00,,,0.00,WeatherCatV1.14B232,2013-03-27 16:47:00,
2013-03-27 12:52:00,51.1,27.6,29.76,NNW,340,5.0,8.0,40,0.00,,,0.00,WeatherCatV1.14B232,2013-03-27 16:52:00,
2013-03-27 12:57:00,51.4,27.9,29.76,NE,47,3.0,6.0,40,0.00,,,0.00,WeatherCatV1.14B232,2013-03-27 16:57:00,
2013-03-27 13:01:00,51.8,27.6,29.76,North,358,7.0,9.0,39,0.00,,,0.00,WeatherCatV1.14B232,2013-03-27 17:01:00,
2013-03-27 13:06:00,51.8,27.6,29.76,East,79,4.0,11.0,39,0.00,,,0.00,WeatherCatV1.14B232,2013-03-27 17:06:00,
2013-03-27 13:07:00,51.7,26.9,29.75,NE,35,6.0,15.0,38,0.00,,,0.00,WeatherCatV1.14B232,2013-03-27 17:07:00,
2013-03-27 13:12:00,51.7,28.8,29.76,NNW,335,4.0,8.0,41,0.00,,,0.00,WeatherCatV1.14B232,2013-03-27 17:12:00,
2013-03-27 13:17:00,52.0,27.2,29.76,NNE,13,9.0,12.0,38,0.00,,,0.00,WeatherCatV1.14B232,2013-03-27 17:17:00,
2013-03-27 13:21:00,52.1,26.6,29.76,NE,55,10.0,11.0,37,0.00,,,0.00,WeatherCatV1.14B232,2013-03-27 17:21:00,
2013-03-27 13:26:00,51.5,26.7,29.76,WNW,289,6.0,6.0,38,0.00,,,0.00,WeatherCatV1.14B232,2013-03-27 17:26:00,
2013-03-27 13:31:00,52.0,25.9,29.75,ENE,72,7.0,15.0,36,0.00,,,0.00,WeatherCatV1.14B232,2013-03-27 17:31:00,
2013-03-27 13:36:00,51.5,25.4,29.75,SW,232,3.0,12.0,36,0.00,,,0.00,WeatherCatV1.14B232,2013-03-27 17:36:00,
2013-03-27 13:41:00,51.2,25.8,29.75,East,90,3.0,15.0,37,0.00,,,0.00,WeatherCatV1.14B232,2013-03-27 17:41:00,
2013-03-27 13:46:00,50.6,25.9,29.76,NNE,13,3.0,14.0,38,0.00,,,0.00,WeatherCatV1.14B232,2013-03-27 17:46:00,
2013-03-27 13:52:00,50.6,25.9,29.75,NNE,13,6.0,17.0,38,0.00,,,0.00,WeatherCatV1.14B232,2013-03-27 17:52:00,
2013-03-27 13:57:00,50.9,25.6,29.75,North,2,9.0,13.0,37,0.00,,,0.00,WeatherCatV1.14B232,2013-03-27 17:57:00,
2013-03-27 14:02:00,51.2,27.1,29.75,NE,42,7.0,16.0,39,0.00,,,0.00,WeatherCatV1.14B232,2013-03-27 18:02:00,
2013-03-27 14:06:00,51.0,26.3,29.75,NNW,339,2.0,7.0,38,0.00,,,0.00,WeatherCatV1.14B232,2013-03-27 18:06:00,
2013-03-27 14:11:00,51.4,27.3,29.75,NNW,334,2.0,9.0,39,0.00,,,0.00,WeatherCatV1.14B232,2013-03-27 18:11:00,
2013-03-27 14:16:00,51.4,26.7,29.75,North,349,6.0,10.0,38,0.00,,,0.00,WeatherCatV1.14B232,2013-03-27 18:16:00,
2013-03-27 14:21:00,50.6,25.9,29.75,NNE,33,7.0,13.0,38,0.00,,,0.00,WeatherCatV1.14B232,2013-03-27 18:21:00,
2013-03-27 14:26:00,50.8,27.4,29.75,NE,51,6.0,6.0,40,0.00,,,0.00,WeatherCatV1.14B232,2013-03-27 18:26:00,
2013-03-27 14:31:00,51.1,26.4,29.75,East,100,3.0,14.0,38,0.00,,,0.00,WeatherCatV1.14B232,2013-03-27 18:31:00,
2013-03-27 14:36:00,51.1,27.0,29.75,WSW,249,3.0,8.0,39,0.00,,,0.00,WeatherCatV1.14B232,2013-03-27 18:36:00,
2013-03-27 14:41:00,51.7,27.6,29.74,ENE,62,2.0,10.0,39,0.00,,,0.00,WeatherCatV1.14B232,2013-03-27 18:41:00,
2013-03-27 14:46:00,52.0,27.2,29.74,WSW,254,3.0,8.0,38,0.00,,,0.00,WeatherCatV1.14B232,2013-03-27 18:46:00,
2013-03-27 14:51:00,52.3,26.1,29.75,NW,326,0.0,13.0,36,0.00,,,0.00,WeatherCatV1.14B232,2013-03-27 18:51:00,
2013-03-27 14:56:00,52.0,27.2,29.75,NE,54,1.0,5.0,38,0.00,,,0.00,WeatherCatV1.14B232,2013-03-27 18:56:00,
2013-03-27 15:01:00,51.7,26.3,29.75,NW,322,4.0,9.0,37,0.00,,,0.00,WeatherCatV1.14B232,2013-03-27 19:01:00,
2013-03-27 15:06:00,51.4,26.7,29.76,North,359,1.0,9.0,38,0.00,,,0.00,WeatherCatV1.14B232,2013-03-27 19:06:00,
2013-03-27 15:08:00,51.1,25.7,29.75,NNW,348,0.0,7.0,37,0.00,,,0.00,WeatherCatV1.14B232,2013-03-27 19:08:00,
2013-03-27 15:11:00,50.9,26.2,29.75,WNW,300,4.0,5.0,38,0.00,,,0.00,WeatherCatV1.14B232,2013-03-27 19:11:00,
2013-03-27 15:16:00,51.1,26.4,29.75,North,11,5.0,13.0,38,0.00,,,0.00,WeatherCatV1.14B232,2013-03-27 19:16:00,
2013-03-27 15:21:00,51.7,26.9,29.75,NW,304,6.0,11.0,38,0.00,,,0.00,WeatherCatV1.14B232,2013-03-27 19:21:00,
2013-03-27 15:26:00,52.1,27.3,29.75,NNW,338,2.0,6.0,38,0.00,,,0.00,WeatherCatV1.14B232,2013-03-27 19:26:00,
2013-03-27 15:31:00,51.8,26.4,29.75,NW,304,2.0,12.0,37,0.00,,,0.00,WeatherCatV1.14B232,2013-03-27 19:31:00,
2013-03-27 15:36:00,51.5,26.7,29.75,North,353,11.0,11.0,38,0.00,,,0.00,WeatherCatV1.14B232,2013-03-27 19:36:00,
2013-03-27 15:41:00,51.5,26.7,29.75,NNW,329,5.0,10.0,38,0.00,,,0.00,WeatherCatV1.14B232,2013-03-27 19:41:00,
2013-03-27 15:46:00,51.4,26.7,29.75,SW,220,1.0,12.0,38,0.00,,,0.00,WeatherCatV1.14B232,2013-03-27 19:46:00,
2013-03-27 15:51:00,51.2,26.5,29.74,North,354,8.0,10.0,38,0.00,,,0.00,WeatherCatV1.14B232,2013-03-27 19:51:00,
2013-03-27 15:56:00,51.2,27.7,29.75,North,0,0.0,0.0,40,0.00,,,0.00,WeatherCatV1.14B232,2013-03-27 19:56:00,
2013-03-27 16:01:00,51.3,27.8,29.75,North,355,0.0,0.0,40,0.00,,,0.00,WeatherCatV1.14B232,2013-03-27 20:01:00,
2013-03-27 16:06:00,51.1,27.6,29.76,NNE,14,3.0,8.0,40,0.00,,,0.00,WeatherCatV1.14B232,2013-03-27 20:06:00,
2013-03-27 16:11:00,50.8,26.7,29.76,North,6,5.0,10.0,39,0.00,,,0.00,WeatherCatV1.14B232,2013-03-27 20:11:00,
2013-03-27 16:16:00,50.3,26.9,29.76,NNE,15,4.0,6.0,40,0.00,,,0.00,WeatherCatV1.14B232,2013-03-27 20:16:00,
2013-03-27 16:21:00,50.2,27.4,29.76,North,356,8.0,8.0,41,0.00,,,0.00,WeatherCatV1.14B232,2013-03-27 20:21:00,
2013-03-27 16:26:00,50.1,27.3,29.76,NNE,25,9.0,10.0,41,0.00,,,0.00,WeatherCatV1.14B232,2013-03-27 20:26:00,
2013-03-27 16:31:00,49.9,27.1,29.77,NW,325,5.0,14.0,41,0.00,,,0.00,WeatherCatV1.14B232,2013-03-27 20:31:00,
2013-03-27 16:36:00,49.6,27.5,29.77,North,2,9.0,10.0,42,0.00,,,0.00,WeatherCatV1.14B232,2013-03-27 20:36:00,
2013-03-27 16:41:00,49.6,26.9,29.77,NNE,12,6.0,8.0,41,0.00,,,0.00,WeatherCatV1.14B232,2013-03-27 20:41:00,
2013-03-27 16:46:00,49.5,27.4,29.77,North,6,4.0,7.0,42,0.00,,,0.00,WeatherCatV1.14B232,2013-03-27 20:46:00,
2013-03-27 16:51:00,49.3,26.6,29.77,NNE,18,7.0,10.0,41,0.00,,,0.00,WeatherCatV1.14B232,2013-03-27 20:51:00,
2013-03-27 16:56:00,49.3,27.8,29.77,North,359,3.0,5.0,43,0.00,,,0.00,WeatherCatV1.14B232,2013-03-27 20:56:00,
2013-03-27 17:01:00,49.8,27.1,29.78,North,352,4.0,10.0,41,0.00,,,0.00,WeatherCatV1.14B232,2013-03-27 21:01:00,
2013-03-27 17:06:00,50.1,27.9,29.78,NNW,337,9.0,11.0,42,0.00,,,0.00,WeatherCatV1.14B232,2013-03-27 21:06:00,
2013-03-27 17:11:00,49.8,26.5,29.78,NNE,16,8.0,10.0,40,0.00,,,0.00,WeatherCatV1.14B232,2013-03-27 21:11:00,
2013-03-27 17:16:00,49.6,26.9,29.78,North,353,0.0,0.0,41,0.00,,,0.00,WeatherCatV1.14B232,2013-03-27 21:16:00,
2013-03-27 17:21:00,49.3,27.2,29.78,NNW,331,3.0,8.0,42,0.00,,,0.00,WeatherCatV1.14B232,2013-03-27 21:21:00,
2013-03-27 17:26:00,49.2,27.7,29.79,SW,217,2.0,7.0,43,0.00,,,0.00,WeatherCatV1.14B232,2013-03-27 21:26:00,
2013-03-27 17:27:00,49.2,27.7,29.78,North,0,5.0,9.0,43,0.00,,,0.00,WeatherCatV1.14B232,2013-03-27 21:27:00,
2013-03-27 17:31:00,48.9,27.4,29.79,NNW,346,5.0,6.0,43,0.00,,,0.00,WeatherCatV1.14B232,2013-03-27 21:31:00,
2013-03-27 17:36:00,48.7,26.6,29.79,NNW,342,2.0,13.0,42,0.00,,,0.00,WeatherCatV1.14B232,2013-03-27 21:36:00,
2013-03-27 17:41:00,48.8,27.3,29.79,NNW,340,4.0,8.0,43,0.00,,,0.00,WeatherCatV1.14B232,2013-03-27 21:41:00,
2013-03-27 17:46:00,48.7,26.6,29.79,SE,142,1.0,9.0,42,0.00,,,0.00,WeatherCatV1.14B232,2013-03-27 21:46:00,
2013-03-27 17:51:00,48.7,26.6,29.79,North,0,11.0,11.0,42,0.00,,,0.00,WeatherCatV1.14B232,2013-03-27 21:51:00,
2013-03-27 17:56:00,48.5,26.5,29.79,NNW,328,2.0,11.0,42,0.00,,,0.00,WeatherCatV1.14B232,2013-03-27 21:56:00,
2013-03-27 18:01:00,48.6,26.0,29.79,North,1,4.0,13.0,41,0.00,,,0.00,WeatherCatV1.14B232,2013-03-27 22:01:00,
2013-03-27 18:06:00,48.6,26.6,29.79,NNE,20,6.0,10.0,42,0.00,,,0.00,WeatherCatV1.14B232,2013-03-27 22:06:00,
2013-03-27 18:11:00,48.6,27.1,29.79,NNE,14,4.0,11.0,43,0.00,,,0.00,WeatherCatV1.14B232,2013-03-27 22:11:00,
2013-03-27 18:16:00,48.6,27.1,29.80,North,8,0.0,13.0,43,0.00,,,0.00,WeatherCatV1.14B232,2013-03-27 22:16:00,
2013-03-27 18:21:00,48.6,27.1,29.80,North,359,3.0,7.0,43,0.00,,,0.00,WeatherCatV1.14B232,2013-03-27 22:21:00,
2013-03-27 18:26:00,48.6,27.1,29.80,NNW,347,2.0,8.0,43,0.00,,,0.00,WeatherCatV1.14B232,2013-03-27 22:26:00,
2013-03-27 18:31:00,48.5,27.0,29.80,NNE,28,5.0,10.0,43,0.00,,,0.00,WeatherCatV1.14B232,2013-03-27 22:31:00,
2013-03-27 18:36:00,48.3,26.9,29.81,NNW,337,2.0,8.0,43,0.00,,,0.00,WeatherCatV1.14B232,2013-03-27 22:36:00,
2013-03-27 18:41:00,48.3,27.4,29.81,NE,56,3.0,4.0,44,0.00,,,0.00,WeatherCatV1.14B232,2013-03-27 22:41:00,
2013-03-27 18:46:00,48.2,27.9,29.81,West,279,0.0,0.0,45,0.00,,,0.00,WeatherCatV1.14B232,2013-03-27 22:46:00,
2013-03-27 18:51:00,48.0,27.7,29.81,North,359,3.0,7.0,45,0.00,,,0.00,WeatherCatV1.14B232,2013-03-27 22:51:00,
2013-03-27 18:56:00,47.8,27.5,29.81,NNE,17,0.0,7.0,45,0.00,,,0.00,WeatherCatV1.14B232,2013-03-27 22:56:00,
2013-03-27 19:01:00,47.6,27.9,29.82,North,355,5.0,8.0,46,0.00,,,0.00,WeatherCatV1.14B232,2013-03-27 23:01:00,
2013-03-27 19:06:00,47.4,27.1,29.82,NE,54,2.0,3.0,45,0.00,,,0.00,WeatherCatV1.14B232,2013-03-27 23:06:00,
2013-03-27 19:11:00,47.4,27.1,29.82,NNW,344,0.0,5.0,45,0.00,,,0.00,WeatherCatV1.14B232,2013-03-27 23:11:00,
2013-03-27 19:16:00,47.3,27.6,29.83,North,0,1.0,9.0,46,0.00,,,0.00,WeatherCatV1.14B232,2013-03-27 23:16:00,
2013-03-27 19:21:00,47.1,27.4,29.82,North,4,7.0,7.0,46,0.00,,,0.00,WeatherCatV1.14B232,2013-03-27 23:21:00,
2013-03-27 19:26:00,47.0,27.8,29.82,NNE,21,5.0,6.0,47,0.00,,,0.00,WeatherCatV1.14B232,2013-03-27 23:26:00,
2013-03-27 19:31:00,46.7,27.6,29.83,NNE,17,2.0,7.0,47,0.00,,,0.00,WeatherCatV1.14B232,2013-03-27 23:31:00,
2013-03-27 19:36:00,46.7,28.1,29.83,NNE,23,2.0,6.0,48,0.00,,,0.00,WeatherCatV1.14B232,2013-03-27 23:36:00,
2013-03-27 19:41:00,46.6,27.5,29.83,North,2,3.0,6.0,47,0.00,,,0.00,WeatherCatV1.14B232,2013-03-27 23:41:00,
2013-03-27 19:43:00,46.5,27.9,29.83,North,358,9.0,9.0,48,0.00,,,0.00,WeatherCatV1.14B232,2013-03-27 23:43:00,
2013-03-27 19:48:00,46.4,28.3,29.83,ENE,58,4.0,9.0,49,0.00,,,0.00,WeatherCatV1.14B232,2013-03-27 23:48:00,
2013-03-27 19:51:00,46.3,28.2,29.83,NNW,347,1.0,4.0,49,0.00,,,0.00,WeatherCatV1.14B232,2013-03-27 23:51:00,
2013-03-27 19:56:00,46.0,28.4,29.84,ENE,58,1.0,7.0,50,0.00,,,0.00,WeatherCatV1.14B232,2013-03-27 23:56:00,
2013-03-27 20:01:00,45.7,29.1,29.84,NNE,14,2.0,8.0,52,0.00,,,0.00,WeatherCatV1.14B232,2013-03-28 00:01:00,
2013-03-27 20:06:00,45.5,28.9,29.84,North,0,0.0,5.0,52,0.00,,,0.00,WeatherCatV1.14B232,2013-03-28 00:06:00,
2013-03-27 20:11:00,45.3,29.6,29.85,North,357,4.0,6.0,54,0.00,,,0.00,WeatherCatV1.14B232,2013-03-28 00:11:00,
2013-03-27 20:13:00,45.3,29.6,29.84,North,0,4.0,5.0,54,0.00,,,0.00,WeatherCatV1.14B232,2013-03-28 00:13:00,
2013-03-27 20:16:00,45.1,29.5,29.86,North,6,3.0,8.0,54,0.00,,,0.00,WeatherCatV1.14B232,2013-03-28 00:16:00,
2013-03-27 20:18:00,45.1,29.9,29.85,North,1,4.0,7.0,55,0.00,,,0.00,WeatherCatV1.14B232,2013-03-28 00:18:00,
2013-03-27 20:21:00,44.9,30.2,29.85,ENE,73,1.0,12.0,56,0.00,,,0.00,WeatherCatV1.14B232,2013-03-28 00:21:00,
2013-03-27 20:26:00,44.8,30.1,29.86,NNW,335,1.0,7.0,56,0.00,,,0.00,WeatherCatV1.14B232,2013-03-28 00:26:00,
2013-03-27 20:31:00,44.6,29.9,29.86,North,353,7.0,9.0,56,0.00,,,0.00,WeatherCatV1.14B232,2013-03-28 00:31:00,
2013-03-27 20:36:00,44.6,30.3,29.86,North,0,0.0,8.0,57,0.00,,,0.00,WeatherCatV1.14B232,2013-03-28 00:36:00,
2013-03-27 20:41:00,44.5,30.7,29.86,North,3,1.0,5.0,58,0.00,,,0.00,WeatherCatV1.14B232,2013-03-28 00:41:00,
2013-03-27 20:43:00,44.3,30.5,29.86,North,350,8.0,9.0,58,0.00,,,0.00,WeatherCatV1.14B232,2013-03-28 00:43:00,
2013-03-27 20:48:00,44.3,30.9,29.87,North,6,4.0,7.0,59,0.00,,,0.00,WeatherCatV1.14B232,2013-03-28 00:48:00,
2013-03-27 20:51:00,44.4,31.0,29.86,North,359,2.0,8.0,59,0.00,,,0.00,WeatherCatV1.14B232,2013-03-28 00:51:00,
2013-03-27 20:56:00,44.2,30.8,29.87,NNE,14,4.0,10.0,59,0.00,,,0.00,WeatherCatV1.14B232,2013-03-28 00:56:00,
2013-03-27 21:01:00,44.1,30.7,29.88,NNE,17,0.0,6.0,59,0.00,,,0.00,WeatherCatV1.14B232,2013-03-28 01:01:00,
2013-03-27 21:06:00,43.9,30.9,29.87,North,1,1.0,8.0,60,0.00,,,0.00,WeatherCatV1.14B232,2013-03-28 01:06:00,
2013-03-27 21:11:00,43.9,31.3,29.87,NE,34,2.0,5.0,61,0.00,,,0.00,WeatherCatV1.14B232,2013-03-28 01:11:00,
2013-03-27 21:16:00,43.7,31.1,29.87,North,0,5.0,6.0,61,0.00,,,0.00,WeatherCatV1.14B232,2013-03-28 01:16:00,
2013-03-27 21:21:00,43.6,31.0,29.87,North,6,0.0,2.0,61,0.00,,,0.00,WeatherCatV1.14B232,2013-03-28 01:21:00,
2013-03-27 21:26:00,43.4,30.9,29.88,North,1,3.0,5.0,61,0.00,,,0.00,WeatherCatV1.14B232,2013-03-28 01:26:00,
2013-03-27 21:31:00,43.2,31.5,29.87,NNE,32,2.0,5.0,63,0.00,,,0.00,WeatherCatV1.14B232,2013-03-28 01:31:00,
2013-03-27 21:36:00,43.0,31.3,29.88,NE,37,2.0,15.0,63,0.00,,,0.00,WeatherCatV1.14B232,2013-03-28 01:36:00,
2013-03-27 21:41:00,42.9,31.2,29.88,North,350,3.0,5.0,63,0.00,,,0.00,WeatherCatV1.14B232,2013-03-28 01:41:00,
2013-03-27 21:46:00,42.9,31.6,29.88,North,0,2.0,6.0,64,0.00,,,0.00,WeatherCatV1.14B232,2013-03-28 01:46:00,
2013-03-27 21:51:00,42.7,31.4,29.88,NNW,346,6.0,7.0,64,0.00,,,0.00,WeatherCatV1.14B232,2013-03-28 01:51:00,
2013-03-27 21:56:00,42.7,31.4,29.88,NNW,347,1.0,6.0,64,0.00,,,0.00,WeatherCatV1.14B232,2013-03-28 01:56:00,
2013-03-27 22:01:00,42.6,31.3,29.88,NE,37,5.0,10.0,64,0.00,,,0.00,WeatherCatV1.14B232,2013-03-28 02:01:00,
2013-03-27 22:06:00,42.5,31.6,29.88,North,0,3.0,4.0,65,0.00,,,0.00,WeatherCatV1.14B232,2013-03-28 02:06:00,
2013-03-27 22:11:00,42.3,31.4,29.88,NNW,331,3.0,4.0,65,0.00,,,0.00,WeatherCatV1.14B232,2013-03-28 02:11:00,
2013-03-27 22:16:00,42.3,31.4,29.88,NNE,27,1.0,10.0,65,0.00,,,0.00,WeatherCatV1.14B232,2013-03-28 02:16:00,
2013-03-27 22:21:00,42.2,31.3,29.88,North,10,9.0,9.0,65,0.00,,,0.00,WeatherCatV1.14B232,2013-03-28 02:21:00,
2013-03-27 22:26:00,42.0,31.5,29.88,NNE,23,6.0,9.0,66,0.00,,,0.00,WeatherCatV1.14B232,2013-03-28 02:26:00,
2013-03-27 22:29:00,41.9,31.8,29.88,North,10,6.0,12.0,67,0.00,,,0.00,WeatherCatV1.14B232,2013-03-28 02:29:00,
2013-03-27 22:31:00,41.9,31.8,29.88,NNW,345,2.0,8.0,67,0.00,,,0.00,WeatherCatV1.14B232,2013-03-28 02:31:00,
2013-03-27 22:36:00,41.6,31.5,29.88,NNW,335,5.0,12.0,67,0.00,,,0.00,WeatherCatV1.14B232,2013-03-28 02:36:00,
2013-03-27 22:39:00,41.6,31.8,29.88,North,359,4.0,8.0,68,0.00,,,0.00,WeatherCatV1.14B232,2013-03-28 02:39:00,
2013-03-27 22:41:00,41.5,31.7,29.89,North,356,2.0,8.0,68,0.00,,,0.00,WeatherCatV1.14B232,2013-03-28 02:41:00,
2013-03-27 22:46:00,41.2,31.8,29.89,NNW,331,1.0,8.0,69,0.00,,,0.00,WeatherCatV1.14B232,2013-03-28 02:46:00,
2013-03-27 22:51:00,41.0,31.6,29.89,North,2,2.0,8.0,69,0.00,,,0.00,WeatherCatV1.14B232,2013-03-28 02:51:00,
2013-03-27 22:56:00,40.9,32.2,29.89,North,0,0.0,4.0,71,0.00,,,0.00,WeatherCatV1.14B232,2013-03-28 02:56:00,
2013-03-27 23:01:00,40.7,32.4,29.89,North,0,0.0,6.0,72,0.00,,,0.00,WeatherCatV1.14B232,2013-03-28 03:01:00,
2013-03-27 23:06:00,40.6,32.3,29.89,West,269,3.0,7.0,72,0.00,,,0.00,WeatherCatV1.14B232,2013-03-28 03:06:00,
2013-03-27 23:11:00,40.6,32.6,29.89,NNE,18,4.0,8.0,73,0.00,,,0.00,WeatherCatV1.14B232,2013-03-28 03:11:00,
2013-03-27 23:16:00,40.5,32.9,29.89,North,1,1.0,5.0,74,0.00,,,0.00,WeatherCatV1.14B232,2013-03-28 03:16:00,
2013-03-27 23:21:00,40.3,32.3,29.89,NNW,336,3.0,3.0,73,0.00,,,0.00,WeatherCatV1.14B232,2013-03-28 03:21:00,
2013-03-27 23:26:00,40.3,32.7,29.89,NNW,346,3.0,3.0,74,0.00,,,0.00,WeatherCatV1.14B232,2013-03-28 03:26:00,
2013-03-27 23:31:00,40.2,32.6,29.89,NNE,26,1.0,6.0,74,0.00,,,0.00,WeatherCatV1.14B232,2013-03-28 03:31:00,
2013-03-27 23:36:00,40.2,32.9,29.89,North,4,0.0,7.0,75,0.00,,,0.00,WeatherCatV1.14B232,2013-03-28 03:36:00,
2013-03-27 23:41:00,40.0,32.7,29.89,North,3,4.0,8.0,75,0.00,,,0.00,WeatherCatV1.14B232,2013-03-28 03:41:00,
2013-03-27 23:46:00,40.0,33.1,29.89,North,351,1.0,10.0,76,0.00,,,0.00,WeatherCatV1.14B232,2013-03-28 03:46:00,
2013-03-27 23:51:00,39.7,33.4,29.89,NNE,20,7.0,8.0,78,0.00,,,0.00,WeatherCatV1.14B232,2013-03-28 03:51:00,
2013-03-27 23:56:00,39.4,33.8,29.90,North,0,2.0,2.0,80,0.00,,,0.00,WeatherCatV1.14B232,2013-03-28 03:56:00,